Terminal Aerodrome Forecast
Issued by NWS St Louis, MO

Home | Current Version | Previous Version | Text Only | Print | Product List | Glossary On
Versions: 1 2 3 4 5 6 7 8 9 10 11 12 13 14 15 16 17 18 19 20 21 22 23 24 25 26 27 28 29 30 31 32 33 34 35 36
000
FTUS43 KLSX 020100 AAC
TAFSTL
TAF AMD
KSTL 020149Z 0202/0306 28020G30KT 3SM TSRA BKN015CB BKN050
     FM020300 21008KT 4SM TSRA BR BKN040CB
      TEMPO 0203/0207 2SM +TSRA OVC015CB
     FM020700 24007KT 5SM -SHRA VCTS BKN020CB
     FM021100 30006KT P6SM BKN040
     FM021800 VRB04KT P6SM SCT040 SCT120=

USA.gov is the U.S. government's official web portal to all federal, state and local government web resources and services.